createdAt,value
2018-06-24T00:01:56.337Z,10.70
2018-06-24T00:04:24.034Z,10.60
2018-06-24T00:06:51.686Z,10.60
2018-06-24T00:09:19.320Z,10.60
2018-06-24T00:11:46.967Z,10.60
2018-06-24T00:14:14.668Z,10.60
2018-06-24T00:16:42.278Z,10.60
2018-06-24T00:19:09.967Z,10.60
2018-06-24T00:21:37.638Z,10.60
2018-06-24T00:24:05.332Z,10.60
2018-06-24T00:26:32.970Z,10.60
2018-06-24T00:29:00.615Z,10.60
2018-06-24T00:31:28.274Z,10.50
2018-06-24T00:33:55.906Z,10.50
2018-06-24T00:36:23.587Z,10.50
2018-06-24T00:38:51.244Z,10.50
2018-06-24T00:41:18.893Z,10.50
2018-06-24T00:43:46.504Z,10.50
2018-06-24T00:46:14.249Z,10.50
2018-06-24T00:48:42.144Z,10.50
2018-06-24T00:51:09.790Z,10.50
2018-06-24T00:53:37.425Z,10.50
2018-06-24T00:56:05.106Z,10.60
2018-06-24T00:58:32.755Z,10.60
2018-06-24T01:01:00.462Z,10.60
2018-06-24T01:03:28.139Z,10.60
2018-06-24T01:05:55.778Z,10.60
2018-06-24T01:08:23.424Z,10.60
2018-06-24T01:10:51.072Z,10.50
2018-06-24T01:13:18.792Z,10.50
2018-06-24T01:15:46.476Z,10.50
2018-06-24T01:18:14.080Z,10.50
2018-06-24T01:20:41.776Z,10.50
2018-06-24T01:23:09.453Z,10.50
2018-06-24T01:25:37.109Z,10.50
2018-06-24T01:28:04.754Z,10.60
2018-06-24T01:30:32.406Z,10.60
2018-06-24T01:33:00.058Z,10.60
2018-06-24T01:35:27.704Z,10.50
2018-06-24T01:37:55.344Z,10.50
2018-06-24T01:40:23.072Z,10.50
2018-06-24T01:42:50.798Z,10.50
2018-06-24T01:45:18.464Z,10.50
2018-06-24T01:47:46.147Z,10.50
2018-06-24T01:50:13.789Z,10.50
2018-06-24T01:52:41.442Z,10.50
2018-06-24T01:55:09.102Z,10.50
2018-06-24T01:57:36.738Z,10.50
2018-06-24T02:00:04.623Z,10.50
2018-06-24T02:02:32.270Z,10.50
2018-06-24T02:04:59.934Z,10.50
2018-06-24T02:07:27.590Z,10.50
2018-06-24T02:09:55.254Z,10.50
2018-06-24T02:12:22.922Z,10.50
2018-06-24T02:14:50.553Z,10.50
2018-06-24T02:17:18.199Z,10.50
2018-06-24T02:19:45.836Z,10.50
2018-06-24T02:22:13.488Z,10.50
2018-06-24T02:24:41.142Z,10.60
2018-06-24T02:27:08.811Z,10.60
2018-06-24T02:29:36.498Z,10.50
2018-06-24T02:32:04.198Z,10.50
2018-06-24T02:34:31.864Z,10.50
2018-06-24T02:36:59.577Z,10.50
2018-06-24T02:39:27.220Z,10.50
2018-06-24T02:41:54.870Z,10.50
2018-06-24T02:44:22.515Z,10.50
2018-06-24T02:46:50.214Z,10.50
2018-06-24T02:49:17.854Z,10.50
2018-06-24T02:51:45.511Z,10.50
2018-06-24T02:54:13.129Z,10.50
2018-06-24T02:56:40.794Z,10.50
2018-06-24T02:59:08.502Z,10.50
2018-06-24T03:01:36.206Z,10.50
2018-06-24T03:04:03.893Z,10.60
2018-06-24T03:06:31.539Z,10.60
2018-06-24T03:08:59.163Z,10.60
2018-06-24T03:11:26.798Z,10.50
2018-06-24T03:13:54.441Z,10.50
2018-06-24T03:16:22.073Z,10.50
2018-06-24T03:18:49.668Z,10.50
2018-06-24T03:21:17.337Z,10.50
2018-06-24T03:23:44.958Z,10.50
2018-06-24T03:26:12.587Z,10.50
2018-06-24T03:28:40.229Z,10.50
2018-06-24T03:31:07.877Z,10.50
2018-06-24T03:33:35.563Z,10.50
2018-06-24T03:36:03.285Z,10.50
2018-06-24T03:38:31.038Z,10.50
2018-06-24T03:40:58.667Z,10.50
2018-06-24T03:43:26.297Z,10.50
2018-06-24T03:45:53.970Z,10.60
2018-06-24T03:48:21.676Z,10.50
2018-06-24T03:50:49.332Z,10.50
2018-06-24T03:53:16.979Z,10.50
2018-06-24T03:55:44.638Z,10.60
2018-06-24T03:58:12.437Z,10.60
2018-06-24T04:00:39.981Z,10.60
2018-06-24T04:03:07.648Z,10.60
2018-06-24T04:05:35.273Z,10.60
2018-06-24T04:08:02.970Z,10.60
2018-06-24T04:10:30.605Z,10.60
2018-06-24T04:12:58.274Z,10.70
2018-06-24T04:17:53.523Z,10.70
2018-06-24T04:20:21.202Z,10.70
2018-06-24T04:22:48.856Z,10.70
2018-06-24T04:25:16.498Z,10.80
2018-06-24T04:27:44.212Z,10.80
2018-06-24T04:30:11.886Z,10.80
2018-06-24T04:32:39.539Z,10.80
2018-06-24T04:35:07.168Z,10.90
2018-06-24T04:37:34.802Z,11.00
2018-06-24T04:40:02.488Z,11.00
2018-06-24T04:42:30.126Z,11.20
2018-06-24T04:44:57.799Z,11.20
2018-06-24T04:47:25.442Z,11.30
2018-06-24T04:49:53.072Z,11.20
2018-06-24T04:52:20.695Z,11.10
2018-06-24T04:54:48.378Z,11.10
2018-06-24T04:57:16.031Z,11.10
2018-06-24T04:59:43.669Z,11.00
2018-06-24T05:02:11.310Z,11.00
2018-06-24T05:04:38.950Z,11.00
2018-06-24T05:07:06.670Z,11.10
2018-06-24T05:09:34.359Z,11.10
2018-06-24T05:12:02.006Z,11.10
2018-06-24T05:14:29.608Z,11.00
2018-06-24T05:16:57.239Z,11.10
2018-06-24T05:19:24.935Z,11.10
2018-06-24T05:21:52.597Z,11.10
2018-06-24T05:24:20.272Z,11.10
2018-06-24T05:26:47.943Z,11.00
2018-06-24T05:29:15.610Z,11.10
2018-06-24T05:31:43.270Z,11.10
2018-06-24T05:34:10.909Z,11.00
2018-06-24T05:36:38.561Z,11.10
2018-06-24T05:39:08.526Z,11.10
2018-06-24T05:41:36.158Z,11.10
2018-06-24T05:44:03.886Z,11.10
2018-06-24T05:46:31.962Z,11.20
2018-06-24T05:48:59.661Z,11.20
2018-06-24T05:51:27.330Z,11.30
2018-06-24T05:53:54.982Z,11.40
2018-06-24T05:56:23.601Z,11.40
2018-06-24T05:58:51.262Z,11.30
2018-06-24T06:01:18.970Z,11.40
2018-06-24T06:03:46.636Z,11.40
2018-06-24T06:06:14.291Z,11.50
2018-06-24T06:08:42.010Z,11.40
2018-06-24T06:11:09.659Z,11.40
2018-06-24T06:13:37.430Z,11.40
2018-06-24T06:16:05.204Z,11.40
2018-06-24T06:18:32.898Z,11.30
2018-06-24T06:21:00.578Z,11.40
2018-06-24T06:23:28.258Z,11.30
2018-06-24T06:25:55.880Z,11.40
2018-06-24T06:28:23.554Z,11.30
2018-06-24T06:30:51.642Z,11.30
2018-06-24T06:33:19.278Z,11.30
2018-06-24T06:35:47.015Z,11.30
2018-06-24T06:38:14.760Z,11.30
2018-06-24T06:40:42.406Z,11.20
2018-06-24T06:43:10.040Z,11.20
2018-06-24T06:45:37.885Z,11.20
2018-06-24T06:48:05.468Z,11.20
2018-06-24T06:50:33.131Z,11.30
2018-06-24T06:53:00.798Z,11.40
2018-06-24T06:55:28.514Z,11.50
2018-06-24T06:57:56.148Z,11.50
2018-06-24T07:00:23.788Z,11.50
2018-06-24T07:02:51.474Z,11.50
2018-06-24T07:05:19.134Z,11.40
2018-06-24T07:07:46.906Z,11.40
2018-06-24T07:10:14.582Z,11.50
2018-06-24T07:12:42.255Z,11.30
2018-06-24T07:15:09.955Z,11.40
2018-06-24T07:17:37.695Z,11.40
2018-06-24T07:20:05.462Z,11.40
2018-06-24T07:22:33.129Z,11.40
2018-06-24T07:25:00.771Z,11.30
2018-06-24T07:27:28.457Z,11.30
2018-06-24T07:29:56.065Z,11.30
2018-06-24T07:32:23.782Z,11.30
2018-06-24T07:34:51.462Z,11.30
2018-06-24T07:37:19.139Z,11.30
2018-06-24T07:39:46.792Z,11.40
2018-06-24T07:42:14.511Z,11.50
2018-06-24T07:44:42.163Z,11.60
2018-06-24T07:47:09.923Z,11.60
2018-06-24T07:49:37.566Z,11.60
2018-06-24T07:52:05.295Z,11.80
2018-06-24T07:54:33.315Z,11.80
2018-06-24T07:57:01.037Z,11.90
2018-06-24T07:59:28.736Z,11.90
2018-06-24T08:01:56.538Z,12.00
2018-06-24T08:04:24.237Z,12.10
2018-06-24T08:06:52.034Z,12.10
2018-06-24T08:09:19.700Z,12.10
2018-06-24T08:11:47.399Z,12.20
2018-06-24T08:14:15.024Z,12.10
2018-06-24T08:16:42.749Z,12.10
2018-06-24T08:19:10.458Z,12.10
2018-06-24T08:21:38.163Z,12.10
2018-06-24T08:24:05.772Z,12.20
2018-06-24T08:26:33.479Z,12.10
2018-06-24T08:29:01.140Z,12.20
2018-06-24T08:31:28.826Z,12.10
2018-06-24T08:33:56.461Z,12.00
2018-06-24T08:36:24.199Z,11.90
2018-06-24T08:38:51.830Z,11.90
2018-06-24T08:41:19.517Z,11.80
2018-06-24T08:43:47.176Z,11.80
2018-06-24T08:46:14.858Z,11.80
2018-06-24T08:48:42.817Z,11.80
2018-06-24T08:51:10.470Z,11.70
2018-06-24T08:53:38.139Z,11.70
2018-06-24T08:56:05.794Z,11.60
2018-06-24T08:58:33.438Z,11.60
2018-06-24T09:01:01.065Z,11.70
2018-06-24T09:03:28.739Z,11.70
2018-06-24T09:05:56.374Z,11.60
2018-06-24T09:08:24.002Z,11.60
2018-06-24T09:10:51.609Z,11.70
2018-06-24T09:13:19.274Z,11.80
2018-06-24T09:15:46.981Z,12.00
2018-06-24T09:18:14.582Z,12.00
2018-06-24T09:20:42.289Z,12.10
2018-06-24T09:23:09.936Z,12.10
2018-06-24T09:25:37.614Z,12.30
2018-06-24T09:28:05.722Z,12.70
2018-06-24T09:30:33.357Z,12.80
2018-06-24T09:33:01.126Z,12.70
2018-06-24T09:35:28.790Z,12.50
2018-06-24T09:37:56.434Z,12.50
2018-06-24T09:40:24.095Z,12.40
2018-06-24T09:42:51.750Z,12.40
2018-06-24T09:45:19.402Z,12.30
2018-06-24T09:47:47.045Z,12.30
2018-06-24T09:50:14.744Z,12.30
2018-06-24T09:52:42.469Z,12.30
2018-06-24T09:55:10.101Z,12.30
2018-06-24T09:57:37.734Z,12.30
2018-06-24T10:00:05.654Z,12.30
2018-06-24T10:02:33.308Z,12.30
2018-06-24T10:05:00.933Z,12.40
2018-06-24T10:07:28.557Z,12.60
2018-06-24T10:09:56.230Z,12.50
2018-06-24T10:12:24.026Z,12.50
2018-06-24T10:14:51.672Z,12.50
2018-06-24T10:17:19.325Z,12.50
2018-06-24T10:19:48.026Z,12.50
2018-06-24T10:22:15.686Z,12.40
2018-06-24T10:24:43.334Z,12.30
2018-06-24T10:27:12.029Z,12.20
2018-06-24T10:29:39.712Z,12.10
2018-06-24T10:32:07.416Z,12.10
2018-06-24T10:34:35.039Z,12.10
2018-06-24T10:37:02.713Z,12.10
2018-06-24T10:39:30.369Z,12.00
2018-06-24T10:41:58.047Z,11.90
2018-06-24T10:44:25.702Z,11.80
2018-06-24T10:46:53.370Z,11.80
2018-06-24T10:49:21.153Z,11.70
2018-06-24T10:51:48.786Z,11.70
2018-06-24T10:54:16.491Z,11.70
2018-06-24T10:56:44.248Z,11.70
2018-06-24T10:59:11.894Z,11.70
2018-06-24T11:01:39.514Z,11.70
2018-06-24T11:04:07.128Z,11.70
2018-06-24T11:06:34.766Z,11.80
2018-06-24T11:09:02.729Z,11.80
2018-06-24T11:11:30.429Z,11.90
2018-06-24T11:13:58.082Z,11.90
2018-06-24T11:16:25.754Z,12.00
2018-06-24T11:18:53.946Z,12.10
2018-06-24T11:21:21.609Z,12.00
2018-06-24T11:23:49.250Z,12.00
2018-06-24T11:26:16.902Z,12.10
2018-06-24T11:28:44.543Z,12.30
2018-06-24T11:31:12.218Z,12.40
2018-06-24T11:33:39.945Z,12.40
2018-06-24T11:36:07.610Z,12.60
2018-06-24T11:38:35.772Z,12.60
2018-06-24T11:41:03.401Z,12.50
2018-06-24T11:43:31.114Z,12.50
2018-06-24T11:45:58.770Z,12.40
2018-06-24T11:48:26.873Z,12.30
2018-06-24T11:50:54.508Z,12.30
2018-06-24T11:53:23.226Z,12.30
2018-06-24T11:55:50.867Z,12.20
2018-06-24T11:58:18.546Z,12.10
2018-06-24T12:00:46.297Z,12.00
2018-06-24T12:03:14.433Z,12.10
2018-06-24T12:05:42.062Z,12.20
2018-06-24T12:08:09.744Z,12.40
2018-06-24T12:10:37.419Z,12.40
2018-06-24T12:13:05.486Z,12.50
2018-06-24T12:15:33.267Z,12.60
2018-06-24T12:18:00.914Z,12.70
2018-06-24T12:20:28.578Z,12.70
2018-06-24T12:22:56.238Z,12.60
2018-06-24T12:25:23.889Z,12.60
2018-06-24T12:27:51.519Z,12.70
2018-06-24T12:30:19.228Z,12.60
2018-06-24T12:32:48.299Z,12.60
2018-06-24T12:35:16.858Z,12.60
2018-06-24T12:37:45.306Z,12.50
2018-06-24T12:40:13.230Z,12.50
2018-06-24T12:42:40.933Z,12.50
2018-06-24T12:45:08.629Z,12.60
2018-06-24T12:47:36.412Z,12.60
2018-06-24T12:50:04.266Z,12.50
2018-06-24T12:52:31.958Z,12.50
2018-06-24T12:54:59.614Z,12.50
2018-06-24T12:57:27.283Z,12.60
2018-06-24T12:59:55.175Z,12.70
2018-06-24T13:02:23.214Z,12.70
2018-06-24T13:04:51.699Z,12.70
2018-06-24T13:07:20.024Z,12.70
2018-06-24T13:09:47.806Z,12.80
2018-06-24T13:12:15.429Z,12.90
2018-06-24T13:14:43.205Z,12.90
2018-06-24T13:17:10.976Z,12.90
2018-06-24T13:19:38.691Z,12.90
2018-06-24T13:22:06.342Z,13.00
2018-06-24T13:24:34.063Z,13.00
2018-06-24T13:27:01.731Z,13.10
2018-06-24T13:29:29.403Z,13.30
2018-06-24T13:31:57.045Z,13.40
2018-06-24T13:34:24.692Z,13.50
2018-06-24T13:36:52.499Z,13.50
2018-06-24T13:39:20.141Z,13.60
2018-06-24T13:41:47.824Z,13.60
2018-06-24T13:44:15.491Z,13.40
2018-06-24T13:46:43.130Z,13.30
2018-06-24T13:49:10.768Z,13.10
2018-06-24T13:51:38.473Z,13.00
2018-06-24T13:54:06.163Z,13.00
2018-06-24T13:56:33.826Z,13.00
2018-06-24T13:59:01.491Z,13.00
2018-06-24T14:01:29.108Z,13.10
2018-06-24T14:03:56.745Z,13.00
2018-06-24T14:06:24.430Z,13.00
2018-06-24T14:08:52.080Z,13.10
2018-06-24T14:11:19.829Z,13.30
2018-06-24T14:13:47.502Z,13.40
2018-06-24T14:16:15.132Z,13.40
2018-06-24T14:18:42.878Z,13.60
2018-06-24T14:21:10.603Z,13.70
2018-06-24T14:23:38.217Z,13.80
2018-06-24T14:26:05.869Z,13.80
2018-06-24T14:28:33.578Z,13.80
2018-06-24T14:31:01.266Z,13.70
2018-06-24T14:33:28.918Z,13.70
2018-06-24T14:35:56.611Z,13.60
2018-06-24T14:38:24.312Z,13.50
2018-06-24T14:40:52.050Z,13.50
2018-06-24T14:43:19.842Z,13.50
2018-06-24T14:45:47.486Z,13.30
2018-06-24T14:48:15.278Z,13.20
2018-06-24T14:50:43.110Z,13.20
2018-06-24T14:53:10.807Z,13.10
2018-06-24T14:55:38.777Z,13.00
2018-06-24T14:58:06.388Z,12.90
2018-06-24T15:00:34.043Z,12.80
2018-06-24T15:03:01.671Z,12.80
2018-06-24T15:05:29.449Z,12.70
2018-06-24T15:07:57.107Z,12.70
2018-06-24T15:10:24.838Z,12.80
2018-06-24T15:12:52.461Z,12.80
2018-06-24T15:15:20.159Z,12.90
2018-06-24T15:17:47.864Z,13.00
2018-06-24T15:20:15.602Z,13.00
2018-06-24T15:22:43.524Z,13.00
2018-06-24T15:25:11.271Z,13.00
2018-06-24T15:27:39.751Z,13.00
2018-06-24T15:30:07.535Z,13.00
2018-06-24T15:32:35.243Z,13.00
2018-06-24T15:35:03.102Z,13.00
2018-06-24T15:37:30.872Z,13.00
2018-06-24T15:39:59.398Z,13.10
2018-06-24T15:42:27.792Z,13.10
2018-06-24T15:44:55.488Z,13.00
2018-06-24T15:47:23.213Z,13.10
2018-06-24T15:49:51.539Z,13.10
2018-06-24T15:52:19.318Z,13.10
2018-06-24T15:54:47.542Z,13.10
2018-06-24T15:57:15.260Z,13.10
2018-06-24T15:59:42.978Z,13.10
2018-06-24T16:02:10.690Z,13.00
2018-06-24T16:04:38.391Z,13.00
2018-06-24T16:07:06.353Z,13.00
2018-06-24T16:09:34.151Z,13.00
2018-06-24T16:12:01.852Z,13.00
2018-06-24T16:14:29.732Z,13.00
2018-06-24T16:16:57.440Z,13.00
2018-06-24T16:19:25.238Z,13.00
2018-06-24T16:21:53.029Z,12.90
2018-06-24T16:24:21.273Z,12.90
2018-06-24T16:26:49.247Z,12.90
2018-06-24T16:29:16.917Z,12.80
2018-06-24T16:31:44.639Z,12.80
2018-06-24T16:34:12.347Z,12.80
2018-06-24T16:36:40.444Z,12.70
2018-06-24T16:39:09.743Z,12.60
2018-06-24T16:41:37.527Z,12.70
2018-06-24T16:44:05.372Z,12.70
2018-06-24T16:46:33.135Z,12.70
2018-06-24T16:49:01.104Z,12.70
2018-06-24T16:51:29.033Z,12.70
2018-06-24T16:53:56.789Z,12.70
2018-06-24T16:56:24.564Z,12.60
2018-06-24T16:58:52.267Z,12.60
2018-06-24T17:01:19.985Z,12.60
2018-06-24T17:03:47.664Z,12.60
2018-06-24T17:06:15.329Z,12.70
2018-06-24T17:08:42.992Z,12.60
2018-06-24T17:11:10.624Z,12.60
2018-06-24T17:13:38.282Z,12.60
2018-06-24T17:16:05.929Z,12.60
2018-06-24T17:18:33.783Z,12.60
2018-06-24T17:21:01.421Z,12.60
2018-06-24T17:23:29.085Z,12.60
2018-06-24T17:25:56.754Z,12.50
2018-06-24T17:28:24.418Z,12.50
2018-06-24T17:30:52.101Z,12.50
2018-06-24T17:33:19.826Z,12.50
2018-06-24T17:35:47.455Z,12.50
2018-06-24T17:38:17.133Z,12.50
2018-06-24T17:40:44.809Z,12.40
2018-06-24T17:43:12.461Z,12.40
2018-06-24T17:45:40.150Z,12.40
2018-06-24T17:48:07.854Z,12.40
2018-06-24T17:50:35.494Z,12.40
2018-06-24T17:53:03.278Z,12.30
2018-06-24T17:55:30.965Z,12.30
2018-06-24T17:57:58.682Z,12.30
2018-06-24T18:00:26.318Z,12.30
2018-06-24T18:02:53.974Z,12.20
2018-06-24T18:05:21.620Z,12.20
2018-06-24T18:07:49.294Z,12.20
2018-06-24T18:10:16.935Z,12.20
2018-06-24T18:12:44.559Z,12.20
2018-06-24T18:15:12.275Z,12.20
2018-06-24T18:17:39.911Z,12.20
2018-06-24T18:20:07.575Z,12.20
2018-06-24T18:22:35.279Z,12.20
2018-06-24T18:25:02.984Z,12.20
2018-06-24T18:27:30.637Z,12.20
2018-06-24T18:29:58.338Z,12.20
2018-06-24T18:32:26.007Z,12.20
2018-06-24T18:34:53.650Z,12.20
2018-06-24T18:37:21.289Z,12.20
2018-06-24T18:39:49.081Z,12.20
2018-06-24T18:42:16.700Z,12.20
2018-06-24T18:44:44.429Z,12.20
2018-06-24T18:47:12.113Z,12.20
2018-06-24T18:49:39.775Z,12.10
2018-06-24T18:52:07.436Z,12.10
2018-06-24T18:54:35.139Z,12.10
2018-06-24T18:57:02.908Z,12.10
2018-06-24T18:59:30.571Z,12.10
2018-06-24T19:01:58.882Z,12.00
2018-06-24T19:04:26.588Z,12.00
2018-06-24T19:06:54.356Z,12.10
2018-06-24T19:09:22.106Z,12.10
2018-06-24T19:11:49.775Z,12.00
2018-06-24T19:14:17.403Z,12.00
2018-06-24T19:16:45.207Z,12.00
2018-06-24T19:19:12.881Z,12.00
2018-06-24T19:21:40.641Z,12.00
2018-06-24T19:24:08.312Z,12.00
2018-06-24T19:26:36.016Z,12.00
2018-06-24T19:29:03.669Z,12.10
2018-06-24T19:31:31.347Z,12.00
2018-06-24T19:33:59.011Z,11.90
2018-06-24T19:36:27.094Z,11.90
2018-06-24T19:38:54.815Z,12.00
2018-06-24T19:41:23.027Z,11.90
2018-06-24T19:43:50.762Z,12.00
2018-06-24T19:46:18.436Z,11.90
2018-06-24T19:48:46.137Z,11.80
2018-06-24T19:51:14.919Z,11.80
2018-06-24T19:53:42.540Z,11.80
2018-06-24T19:56:10.179Z,11.80
2018-06-24T19:58:37.890Z,11.80
2018-06-24T20:01:06.106Z,11.80
2018-06-24T20:03:33.744Z,11.70
2018-06-24T20:06:01.403Z,11.70
2018-06-24T20:08:29.021Z,11.80
2018-06-24T20:10:56.963Z,11.70
2018-06-24T20:13:24.682Z,11.60
2018-06-24T20:15:52.285Z,11.60
2018-06-24T20:18:19.948Z,11.60
2018-06-24T20:20:48.482Z,11.60
2018-06-24T20:23:16.772Z,11.60
2018-06-24T20:25:44.464Z,11.60
2018-06-24T20:28:12.152Z,11.70
2018-06-24T20:30:39.810Z,11.60
2018-06-24T20:33:07.457Z,11.60
2018-06-24T20:35:35.166Z,11.60
2018-06-24T20:38:02.858Z,11.60
2018-06-24T20:40:30.538Z,11.60
2018-06-24T20:42:58.201Z,11.60
2018-06-24T20:45:25.899Z,11.60
2018-06-24T20:47:53.556Z,11.60
2018-06-24T20:50:21.227Z,11.60
2018-06-24T20:52:48.884Z,11.60
2018-06-24T20:55:16.502Z,11.60
2018-06-24T20:57:44.267Z,11.60
2018-06-24T21:00:11.881Z,11.60
2018-06-24T21:02:39.542Z,11.60
2018-06-24T21:05:07.298Z,11.70
2018-06-24T21:07:34.976Z,11.60
2018-06-24T21:10:02.650Z,11.60
2018-06-24T21:12:30.322Z,11.60
2018-06-24T21:14:57.966Z,11.60
2018-06-24T21:17:25.698Z,11.60
2018-06-24T21:19:53.326Z,11.60
2018-06-24T21:22:20.989Z,11.50
2018-06-24T21:24:48.738Z,11.50
2018-06-24T21:27:16.313Z,11.60
2018-06-24T21:29:43.954Z,11.60
2018-06-24T21:32:11.568Z,11.60
2018-06-24T21:34:39.242Z,11.60
2018-06-24T21:37:06.887Z,11.60
2018-06-24T21:39:34.562Z,11.50
2018-06-24T21:42:02.275Z,11.50
2018-06-24T21:44:29.917Z,11.50
2018-06-24T21:46:57.564Z,11.50
2018-06-24T21:49:25.204Z,11.50
2018-06-24T21:51:53.691Z,11.50
2018-06-24T21:54:21.430Z,11.50
2018-06-24T21:56:49.058Z,11.50
2018-06-24T21:59:16.970Z,11.50
2018-06-24T22:01:44.639Z,11.40
2018-06-24T22:04:12.252Z,11.40
2018-06-24T22:06:39.939Z,11.40
2018-06-24T22:09:09.262Z,11.40
2018-06-24T22:11:37.111Z,11.50
2018-06-24T22:14:04.818Z,11.50
2018-06-24T22:16:32.540Z,11.50
2018-06-24T22:19:00.174Z,11.40
2018-06-24T22:21:27.800Z,11.40
2018-06-24T22:23:55.421Z,11.40
2018-06-24T22:26:23.052Z,11.50
2018-06-24T22:28:50.677Z,11.50
2018-06-24T22:31:18.369Z,11.50
2018-06-24T22:33:45.985Z,11.50
2018-06-24T22:36:13.679Z,11.50
2018-06-24T22:38:41.339Z,11.50
2018-06-24T22:41:08.966Z,11.50
2018-06-24T22:43:36.594Z,11.40
2018-06-24T22:46:04.303Z,11.40
2018-06-24T22:48:31.924Z,11.40
2018-06-24T22:50:59.584Z,11.40
2018-06-24T22:53:27.242Z,11.40
2018-06-24T22:55:54.958Z,11.50
2018-06-24T22:58:22.609Z,11.40
2018-06-24T23:00:50.344Z,11.50
2018-06-24T23:03:18.026Z,11.40
2018-06-24T23:05:45.634Z,11.40
2018-06-24T23:08:13.299Z,11.40
2018-06-24T23:10:40.990Z,11.40
2018-06-24T23:13:08.646Z,11.40
2018-06-24T23:15:36.281Z,11.40
2018-06-24T23:20:31.865Z,11.40
2018-06-24T23:22:59.559Z,11.40
2018-06-24T23:25:27.199Z,11.40
2018-06-24T23:27:54.822Z,11.40
2018-06-24T23:30:22.504Z,11.40
2018-06-24T23:32:50.179Z,11.40
2018-06-24T23:35:17.834Z,11.40
2018-06-24T23:37:45.476Z,11.40
2018-06-24T23:40:13.148Z,11.40
2018-06-24T23:42:40.812Z,11.40
2018-06-24T23:45:08.494Z,11.40
2018-06-24T23:47:36.134Z,11.40
2018-06-24T23:50:03.923Z,11.40
2018-06-24T23:52:31.628Z,11.50
2018-06-24T23:54:59.329Z,11.40
2018-06-24T23:57:27.051Z,11.50
2018-06-24T23:59:54.712Z,11.50
